This is the latest recevied weather packets stored in our database for station/object IU7LMH-13. If no packets are shown the sender has not sent any weather packets the latest 10 day(s).
| Time | Temp. | Humidity | Pressure | Rain* | Wind** | Luminosity | Snow |
|---|---|---|---|---|---|---|---|
| 1777452999 | 20° C | 71% | 1016.1 hPa | 0 mm | - | - | - |
| 1777452642 | 20° C | 71% | 1016.4 hPa | 0 mm | - | - | - |
| 1777452158 | 19.44° C | 71% | 1016.2 hPa | 0 mm | - | - | - |
| 1777450245 | 21.11° C | 63% | 1016.1 hPa | 0 mm | - | - | - |
| 1777449878 | 21.11° C | 64% | 1016.2 hPa | 0 mm | - | - | - |
| 1777449157 | 20.56° C | 61% | 1016.1 hPa | 0 mm | - | - | - |
| 1777447241 | 18.89° C | 67% | 1016.1 hPa | 0 mm | - | - | - |
| 1777446758 | 18.33° C | 70% | 1016.1 hPa | 0 mm | - | - | - |
| 1777445198 | 16.67° C | 78% | 1016.1 hPa | 0 mm | - | - | - |
| 1777445078 | 16.67° C | 80% | 1015.9 hPa | 0 mm | - | - | - |
| 1777444715 | 15.56° C | 89% | 1016.1 hPa | 0 mm | - | - | - |
| 1777444598 | 15.56° C | 90% | 1016 hPa | 0 mm | - | - | - |
| 1777443640 | 14.44° C | 94% | 1016.1 hPa | 0 mm | - | - | - |
| 1777442199 | 13.33° C | 95% | 1016 hPa | 0 mm | - | - | - |
| 1777439077 | 12.22° C | 95% | 1015.9 hPa | 0 mm | - | - | - |
| 1777437397 | 12.22° C | 95% | 1015.8 hPa | 0 mm | - | - | - |
| 1777435357 | 12.78° C | 95% | 1015.7 hPa | 0 mm | - | - | - |
| 1777433676 | 13.33° C | 94% | 1015.5 hPa | 0 mm | - | - | - |
| 1777432841 | 13.89° C | 94% | 1015.4 hPa | 0 mm | - | - | - |
| 1777432477 | 13.89° C | 94% | 1015.2 hPa | 0 mm | - | - | - |
| 1777431878 | 13.89° C | 94% | 1015.5 hPa | 0 mm | - | - | - |
| 1777431646 | 13.89° C | 94% | 1015.4 hPa | 0 mm | - | - | - |
| 1777430677 | 14.44° C | 94% | 1015.6 hPa | 0 mm | - | - | - |
| 1777430317 | 14.44° C | 94% | 1015.5 hPa | 0 mm | - | - | - |
| 1777429957 | 14.44° C | 93% | 1015.4 hPa | 0 mm | - | - | - |
* Rain latest hour (hover to see other rain measurements)
** Current wind speed in m/s (hover to see current wind gust speed)